Aviation Digital Data Service (ADDS)

Output produced by METARs form (0855 UTC 26 January 2020)
found at http://www.aviationweather.gov/metar/data/
 
METAR text: RJOM 260800Z 14006KT 9999 FEW025 SCT110 BKN/// 11/06 Q1022
Conditions at: RJOM (MATSUYAMA AIRPOR, JP) observed 0800 UTC 26 January 2020
Temperature: 11.0°C (52°F)
Dewpoint: 6.0°C (43°F) [RH = 71%]
Pressure (altimeter): 30.18 inches Hg (1022.0 mb)
Winds: from the SE (140 degrees) at 7 MPH (6 knots; 3.1 m/s)
Visibility: 6 or more miles (10+ km)
Ceiling: at least 12,000 feet AGL
Clouds: few clouds at 2500 feet AGL
scattered clouds at 11000 feet AGL
Weather: no significant weather observed at this time

METAR text: RJOM 260700Z 26004KT 210V300 9999 FEW025 BKN/// 11/07 Q1022
Conditions at: RJOM (MATSUYAMA AIRPOR, JP) observed 0700 UTC 26 January 2020
Temperature: 11.0°C (52°F)
Dewpoint: 7.0°C (45°F) [RH = 76%]
Pressure (altimeter): 30.18 inches Hg (1022.0 mb)
Winds: from the W (260 degrees) at 5 MPH (4 knots; 2.1 m/s)
Visibility: 6 or more miles (10+ km)
Ceiling: at least 12,000 feet AGL
Clouds: few clouds at 2500 feet AGL
Weather: no significant weather observed at this time

METAR text: RJOM 260600Z VRB02KT 9999 FEW025 SCT160 BKN/// 11/07 Q1021
Conditions at: RJOM (MATSUYAMA AIRPOR, JP) observed 0600 UTC 26 January 2020
Temperature: 11.0°C (52°F)
Dewpoint: 7.0°C (45°F) [RH = 76%]
Pressure (altimeter): 30.15 inches Hg (1021.0 mb)
Winds: variable direction winds at 2 MPH (2 knots; 1.0 m/s)
Visibility: 6 or more miles (10+ km)
Ceiling: at least 12,000 feet AGL
Clouds: few clouds at 2500 feet AGL
scattered clouds at 16000 feet AGL
Weather: no significant weather observed at this time

METAR text: RJOM 260500Z 27003KT 210V340 9999 FEW015 SCT025 BKN/// 11/06 Q1021
Conditions at: RJOM (MATSUYAMA AIRPOR, JP) observed 0500 UTC 26 January 2020
Temperature: 11.0°C (52°F)
Dewpoint: 6.0°C (43°F) [RH = 71%]
Pressure (altimeter): 30.15 inches Hg (1021.0 mb)
Winds: from the W (270 degrees) at 3 MPH (3 knots; 1.5 m/s)
Visibility: 6 or more miles (10+ km)
Ceiling: at least 12,000 feet AGL
Clouds: few clouds at 1500 feet AGL
scattered clouds at 2500 feet AGL
Weather: no significant weather observed at this time

METAR text: RJOM 260400Z 36003KT 320V070 9999 FEW015 SCT020 BKN040 11/08 Q1022
Conditions at: RJOM (MATSUYAMA AIRPOR, JP) observed 0400 UTC 26 January 2020
Temperature: 11.0°C (52°F)
Dewpoint: 8.0°C (46°F) [RH = 82%]
Pressure (altimeter): 30.18 inches Hg (1022.0 mb)
Winds: from the N (360 degrees) at 3 MPH (3 knots; 1.5 m/s)
Visibility: 6 or more miles (10+ km)
Ceiling: 4000 feet AGL
Clouds: few clouds at 1500 feet AGL
scattered clouds at 2000 feet AGL
broken clouds at 4000 feet AGL
Weather: no significant weather observed at this time

METAR text: RJOM 260300Z 32003KT 9999 FEW010 SCT015 BKN025 10/07 Q1023
Conditions at: RJOM (MATSUYAMA AIRPOR, JP) observed 0300 UTC 26 January 2020
Temperature: 10.0°C (50°F)
Dewpoint: 7.0°C (45°F) [RH = 82%]
Pressure (altimeter): 30.21 inches Hg (1023.0 mb)
Winds: from the NW (320 degrees) at 3 MPH (3 knots; 1.5 m/s)
Visibility: 6 or more miles (10+ km)
Ceiling: 2500 feet AGL
Clouds: few clouds at 1000 feet AGL
scattered clouds at 1500 feet AGL
broken clouds at 2500 feet AGL
Weather: no significant weather observed at this time

METAR text: RJOM 260200Z 01004KT 330V040 9999 FEW010 SCT015 BKN025 09/07 Q1024
Conditions at: RJOM (MATSUYAMA AIRPOR, JP) observed 0200 UTC 26 January 2020
Temperature: 9.0°C (48°F)
Dewpoint: 7.0°C (45°F) [RH = 87%]
Pressure (altimeter): 30.24 inches Hg (1024.0 mb)
Winds: from the N (10 degrees) at 5 MPH (4 knots; 2.1 m/s)
Visibility: 6 or more miles (10+ km)
Ceiling: 2500 feet AGL
Clouds: few clouds at 1000 feet AGL
scattered clouds at 1500 feet AGL
broken clouds at 2500 feet AGL
Weather: no significant weather observed at this time

METAR text: RJOM 260100Z VRB02KT 9999 FEW010 SCT015 BKN120 09/06 Q1025
Conditions at: RJOM (MATSUYAMA AIRPOR, JP) observed 0100 UTC 26 January 2020
Temperature: 9.0°C (48°F)
Dewpoint: 6.0°C (43°F) [RH = 81%]
Pressure (altimeter): 30.27 inches Hg (1025.0 mb)
Winds: variable direction winds at 2 MPH (2 knots; 1.0 m/s)
Visibility: 6 or more miles (10+ km)
Ceiling: 12000 feet AGL
Clouds: few clouds at 1000 feet AGL
scattered clouds at 1500 feet AGL
broken clouds at 12000 feet AGL
Weather: no significant weather observed at this time

METAR text: RJOM 260000Z 11005KT 9999 FEW010 SCT025 BKN090 08/07 Q1024
Conditions at: RJOM (MATSUYAMA AIRPOR, JP) observed 0000 UTC 26 January 2020
Temperature: 8.0°C (46°F)
Dewpoint: 7.0°C (45°F) [RH = 93%]
Pressure (altimeter): 30.24 inches Hg (1024.0 mb)
Winds: from the ESE (110 degrees) at 6 MPH (5 knots; 2.6 m/s)
Visibility: 6 or more miles (10+ km)
Ceiling: 9000 feet AGL
Clouds: few clouds at 1000 feet AGL
scattered clouds at 2500 feet AGL
broken clouds at 9000 feet AGL
Weather: no significant weather observed at this time

METAR text: RJOM 252300Z 03010KT 9999 FEW008 SCT025 BKN090 08/07 Q1024
Conditions at: RJOM (MATSUYAMA AIRPOR, JP) observed 2300 UTC 25 January 2020
Temperature: 8.0°C (46°F)
Dewpoint: 7.0°C (45°F) [RH = 93%]
Pressure (altimeter): 30.24 inches Hg (1024.0 mb)
Winds: from the NNE (30 degrees) at 12 MPH (10 knots; 5.1 m/s)
Visibility: 6 or more miles (10+ km)
Ceiling: 9000 feet AGL
Clouds: few clouds at 800 feet AGL
scattered clouds at 2500 feet AGL
broken clouds at 9000 feet AGL
Weather: no significant weather observed at this time

METAR text: RJOM 252241Z 36010KT 300V020 9999 FEW008 SCT025 BKN045 08/07 Q1024 RMK 1ST008 3CU025 6SC045 A3024 P/RR
Conditions at: RJOM (MATSUYAMA AIRPOR, JP) observed 2241 UTC 25 January 2020
Temperature: 8.0°C (46°F)
Dewpoint: 7.0°C (45°F) [RH = 93%]
Pressure (altimeter): 30.24 inches Hg (1024.0 mb)
Winds: from the N (360 degrees) at 12 MPH (10 knots; 5.1 m/s)
Visibility: 6 or more miles (10+ km)
Ceiling: 4500 feet AGL
Clouds: few clouds at 800 feet AGL
scattered clouds at 2500 feet AGL
broken clouds at 4500 feet AGL
Weather: no significant weather observed at this time

METAR text: RJOM 252200Z VRB01KT 9999 FEW008 SCT040 BKN060 07/07 Q1023
Conditions at: RJOM (MATSUYAMA AIRPOR, JP) observed 2200 UTC 25 January 2020
Temperature: 7.0°C (45°F)
Dewpoint: 7.0°C (45°F) [RH = 100%]
Pressure (altimeter): 30.21 inches Hg (1023.0 mb)
Winds: variable direction winds at 1 MPH (1 knots; 0.5 m/s)
Visibility: 6 or more miles (10+ km)
Ceiling: 6000 feet AGL
Clouds: few clouds at 800 feet AGL
scattered clouds at 4000 feet AGL
broken clouds at 6000 feet AGL
Weather: no significant weather observed at this time

METAR text: RJOM 252110Z 10004KT 040V140 9999 FEW008 SCT060 BKN100 08/07 Q1023 RMK 1ST008 3SC060 6AC100 A3023
Conditions at: RJOM (MATSUYAMA AIRPOR, JP) observed 2110 UTC 25 January 2020
Temperature: 8.0°C (46°F)
Dewpoint: 7.0°C (45°F) [RH = 93%]
Pressure (altimeter): 30.21 inches Hg (1023.0 mb)
Winds: from the E (100 degrees) at 5 MPH (4 knots; 2.1 m/s)
Visibility: 6 or more miles (10+ km)
Ceiling: 10000 feet AGL
Clouds: few clouds at 800 feet AGL
scattered clouds at 6000 feet AGL
broken clouds at 10000 feet AGL
Weather: no significant weather observed at this time

METAR text: RJOM 251200Z 12005KT 080V140 9999 -RA FEW025 SCT050 BKN070 08/06 Q1026
Conditions at: RJOM (MATSUYAMA AIRPOR, JP) observed 1200 UTC 25 January 2020
Temperature: 8.0°C (46°F)
Dewpoint: 6.0°C (43°F) [RH = 87%]
Pressure (altimeter): 30.30 inches Hg (1026.0 mb)
Winds: from the ESE (120 degrees) at 6 MPH (5 knots; 2.6 m/s)
Visibility: 6 or more miles (10+ km)
Ceiling: 7000 feet AGL
Clouds: few clouds at 2500 feet AGL
scattered clouds at 5000 feet AGL
broken clouds at 7000 feet AGL
Weather: -RA  (light rain)

METAR text: RJOM 251100Z 13008KT 9999 -RA FEW025 SCT050 BKN070 08/06 Q1027
Conditions at: RJOM (MATSUYAMA AIRPOR, JP) observed 1100 UTC 25 January 2020
Temperature: 8.0°C (46°F)
Dewpoint: 6.0°C (43°F) [RH = 87%]
Pressure (altimeter): 30.32 inches Hg (1027.0 mb)
Winds: from the SE (130 degrees) at 9 MPH (8 knots; 4.1 m/s)
Visibility: 6 or more miles (10+ km)
Ceiling: 7000 feet AGL
Clouds: few clouds at 2500 feet AGL
scattered clouds at 5000 feet AGL
broken clouds at 7000 feet AGL
Weather: -RA  (light rain)

METAR text: RJOM 251048Z 12010KT 9999 RA FEW025 SCT050 BKN080 08/06 Q1026 RMK 1CU025 3SC050 6AC080 A3031
Conditions at: RJOM (MATSUYAMA AIRPOR, JP) observed 1048 UTC 25 January 2020
Temperature: 8.0°C (46°F)
Dewpoint: 6.0°C (43°F) [RH = 87%]
Pressure (altimeter): 30.30 inches Hg (1026.0 mb)
Winds: from the ESE (120 degrees) at 12 MPH (10 knots; 5.1 m/s)
Visibility: 6 or more miles (10+ km)
Ceiling: 8000 feet AGL
Clouds: few clouds at 2500 feet AGL
scattered clouds at 5000 feet AGL
broken clouds at 8000 feet AGL
Weather: RA  (moderate rain)

METAR text: RJOM 251000Z 11007KT 9999 FEW010 SCT050 BKN070 09/06 Q1025
Conditions at: RJOM (MATSUYAMA AIRPOR, JP) observed 1000 UTC 25 January 2020
Temperature: 9.0°C (48°F)
Dewpoint: 6.0°C (43°F) [RH = 81%]
Pressure (altimeter): 30.27 inches Hg (1025.0 mb)
Winds: from the ESE (110 degrees) at 8 MPH (7 knots; 3.6 m/s)
Visibility: 6 or more miles (10+ km)
Ceiling: 7000 feet AGL
Clouds: few clouds at 1000 feet AGL
scattered clouds at 5000 feet AGL
broken clouds at 7000 feet AGL
Weather: no significant weather observed at this time

METAR text: RJOM 250900Z VRB02KT 9999 -RA FEW010 SCT050 BKN070 10/05 Q1025
Conditions at: RJOM (MATSUYAMA AIRPOR, JP) observed 0900 UTC 25 January 2020
Temperature: 10.0°C (50°F)
Dewpoint: 5.0°C (41°F) [RH = 71%]
Pressure (altimeter): 30.27 inches Hg (1025.0 mb)
Winds: variable direction winds at 2 MPH (2 knots; 1.0 m/s)
Visibility: 6 or more miles (10+ km)
Ceiling: 7000 feet AGL
Clouds: few clouds at 1000 feet AGL
scattered clouds at 5000 feet AGL
broken clouds at 7000 feet AGL
Weather: -RA  (light rain)

METAR text: RJOM 250800Z 34004KT 280V010 9999 -RA FEW010 SCT050 BKN070 10/05 Q1025
Conditions at: RJOM (MATSUYAMA AIRPOR, JP) observed 0800 UTC 25 January 2020
Temperature: 10.0°C (50°F)
Dewpoint: 5.0°C (41°F) [RH = 71%]
Pressure (altimeter): 30.27 inches Hg (1025.0 mb)
Winds: from the NNW (340 degrees) at 5 MPH (4 knots; 2.1 m/s)
Visibility: 6 or more miles (10+ km)
Ceiling: 7000 feet AGL
Clouds: few clouds at 1000 feet AGL
scattered clouds at 5000 feet AGL
broken clouds at 7000 feet AGL
Weather: -RA  (light rain)

METAR text: RJOM 250700Z 12005KT 9999 -RA FEW010 SCT050 BKN070 10/04 Q1024
Conditions at: RJOM (MATSUYAMA AIRPOR, JP) observed 0700 UTC 25 January 2020
Temperature: 10.0°C (50°F)
Dewpoint: 4.0°C (39°F) [RH = 66%]
Pressure (altimeter): 30.24 inches Hg (1024.0 mb)
Winds: from the ESE (120 degrees) at 6 MPH (5 knots; 2.6 m/s)
Visibility: 6 or more miles (10+ km)
Ceiling: 7000 feet AGL
Clouds: few clouds at 1000 feet AGL
scattered clouds at 5000 feet AGL
broken clouds at 7000 feet AGL
Weather: -RA  (light rain)

METAR text: RJOM 250600Z 33004KT 290V010 9999 -RA FEW010 SCT060 BKN070 10/05 Q1025
Conditions at: RJOM (MATSUYAMA AIRPOR, JP) observed 0600 UTC 25 January 2020
Temperature: 10.0°C (50°F)
Dewpoint: 5.0°C (41°F) [RH = 71%]
Pressure (altimeter): 30.27 inches Hg (1025.0 mb)
Winds: from the NNW (330 degrees) at 5 MPH (4 knots; 2.1 m/s)
Visibility: 6 or more miles (10+ km)
Ceiling: 7000 feet AGL
Clouds: few clouds at 1000 feet AGL
scattered clouds at 6000 feet AGL
broken clouds at 7000 feet AGL
Weather: -RA  (light rain)

METAR text: RJOM 250500Z 12007KT 080V140 9999 -RA FEW025 SCT050 BKN070 11/04 Q1026
Conditions at: RJOM (MATSUYAMA AIRPOR, JP) observed 0500 UTC 25 January 2020
Temperature: 11.0°C (52°F)
Dewpoint: 4.0°C (39°F) [RH = 62%]
Pressure (altimeter): 30.30 inches Hg (1026.0 mb)
Winds: from the ESE (120 degrees) at 8 MPH (7 knots; 3.6 m/s)
Visibility: 6 or more miles (10+ km)
Ceiling: 7000 feet AGL
Clouds: few clouds at 2500 feet AGL
scattered clouds at 5000 feet AGL
broken clouds at 7000 feet AGL
Weather: -RA  (light rain)

METAR text: RJOM 250400Z 13009KT 9999 FEW025 SCT050 BKN080 10/04 Q1026
Conditions at: RJOM (MATSUYAMA AIRPOR, JP) observed 0400 UTC 25 January 2020
Temperature: 10.0°C (50°F)
Dewpoint: 4.0°C (39°F) [RH = 66%]
Pressure (altimeter): 30.30 inches Hg (1026.0 mb)
Winds: from the SE (130 degrees) at 10 MPH (9 knots; 4.6 m/s)
Visibility: 6 or more miles (10+ km)
Ceiling: 8000 feet AGL
Clouds: few clouds at 2500 feet AGL
scattered clouds at 5000 feet AGL
broken clouds at 8000 feet AGL
Weather: no significant weather observed at this time

METAR text: RJOM 250300Z 25003KT 220V300 9999 FEW030 BKN080 11/05 Q1026
Conditions at: RJOM (MATSUYAMA AIRPOR, JP) observed 0300 UTC 25 January 2020
Temperature: 11.0°C (52°F)
Dewpoint: 5.0°C (41°F) [RH = 66%]
Pressure (altimeter): 30.30 inches Hg (1026.0 mb)
Winds: from the WSW (250 degrees) at 3 MPH (3 knots; 1.5 m/s)
Visibility: 6 or more miles (10+ km)
Ceiling: 8000 feet AGL
Clouds: few clouds at 3000 feet AGL
broken clouds at 8000 feet AGL
Weather: no significant weather observed at this time

METAR text: RJOM 250200Z 28004KT 230V320 9999 FEW025 BKN090 BKN140 10/05 Q1027
Conditions at: RJOM (MATSUYAMA AIRPOR, JP) observed 0200 UTC 25 January 2020
Temperature: 10.0°C (50°F)
Dewpoint: 5.0°C (41°F) [RH = 71%]
Pressure (altimeter): 30.32 inches Hg (1027.0 mb)
Winds: from the W (280 degrees) at 5 MPH (4 knots; 2.1 m/s)
Visibility: 6 or more miles (10+ km)
Ceiling: 9000 feet AGL
Clouds: few clouds at 2500 feet AGL
broken clouds at 9000 feet AGL
broken clouds at 14000 feet AGL
Weather: no significant weather observed at this time

METAR text: RJOM 250100Z 13007KT 9999 FEW025 BKN100 10/04 Q1027
Conditions at: RJOM (MATSUYAMA AIRPOR, JP) observed 0100 UTC 25 January 2020
Temperature: 10.0°C (50°F)
Dewpoint: 4.0°C (39°F) [RH = 66%]
Pressure (altimeter): 30.32 inches Hg (1027.0 mb)
Winds: from the SE (130 degrees) at 8 MPH (7 knots; 3.6 m/s)
Visibility: 6 or more miles (10+ km)
Ceiling: 10000 feet AGL
Clouds: few clouds at 2500 feet AGL
broken clouds at 10000 feet AGL
Weather: no significant weather observed at this time

METAR text: RJOM 250000Z 13006KT 9999 FEW020 SCT130 BKN/// 10/05 Q1028
Conditions at: RJOM (MATSUYAMA AIRPOR, JP) observed 0000 UTC 25 January 2020
Temperature: 10.0°C (50°F)
Dewpoint: 5.0°C (41°F) [RH = 71%]
Pressure (altimeter): 30.35 inches Hg (1028.0 mb)
Winds: from the SE (130 degrees) at 7 MPH (6 knots; 3.1 m/s)
Visibility: 6 or more miles (10+ km)
Ceiling: at least 12,000 feet AGL
Clouds: few clouds at 2000 feet AGL
scattered clouds at 13000 feet AGL
Weather: no significant weather observed at this time

METAR text: RJOM 242300Z 13005KT 9999 FEW020 SCT100 BKN130 09/04 Q1028
Conditions at: RJOM (MATSUYAMA AIRPOR, JP) observed 2300 UTC 24 January 2020
Temperature: 9.0°C (48°F)
Dewpoint: 4.0°C (39°F) [RH = 71%]
Pressure (altimeter): 30.35 inches Hg (1028.0 mb)
Winds: from the SE (130 degrees) at 6 MPH (5 knots; 2.6 m/s)
Visibility: 6 or more miles (10+ km)
Ceiling: 13000 feet AGL
Clouds: few clouds at 2000 feet AGL
scattered clouds at 10000 feet AGL
broken clouds at 13000 feet AGL
Weather: no significant weather observed at this time

METAR text: RJOM 242200Z 12004KT 9999 FEW020 SCT100 BKN130 09/05 Q1027
Conditions at: RJOM (MATSUYAMA AIRPOR, JP) observed 2200 UTC 24 January 2020
Temperature: 9.0°C (48°F)
Dewpoint: 5.0°C (41°F) [RH = 76%]
Pressure (altimeter): 30.32 inches Hg (1027.0 mb)
Winds: from the ESE (120 degrees) at 5 MPH (4 knots; 2.1 m/s)
Visibility: 6 or more miles (10+ km)
Ceiling: 13000 feet AGL
Clouds: few clouds at 2000 feet AGL
scattered clouds at 10000 feet AGL
broken clouds at 13000 feet AGL
Weather: no significant weather observed at this time

METAR text: RJOM 242110Z 16004KT 120V220 9999 FEW025 SCT120 BKN140 09/05 Q1026 RMK 1CU025 3AC120 6AC140 A3032
Conditions at: RJOM (MATSUYAMA AIRPOR, JP) observed 2110 UTC 24 January 2020
Temperature: 9.0°C (48°F)
Dewpoint: 5.0°C (41°F) [RH = 76%]
Pressure (altimeter): 30.30 inches Hg (1026.0 mb)
Winds: from the SSE (160 degrees) at 5 MPH (4 knots; 2.1 m/s)
Visibility: 6 or more miles (10+ km)
Ceiling: 14000 feet AGL
Clouds: few clouds at 2500 feet AGL
scattered clouds at 12000 feet AGL
broken clouds at 14000 feet AGL
Weather: no significant weather observed at this time

Forecast for: RJOM (MATSUYAMA AIRPOR, JP)
Text: TAF RJOM 260505Z 2606/2712 02008KT 9999 FEW040 BKN070
Forecast period: 0600 to 0700 UTC 26 January 2020
Forecast type: FROM: standard forecast or significant change
Winds: from the NNE (20 degrees) at 9 MPH (8 knots; 4.1 m/s)
Visibility: 6 or more miles 10+ km)
Ceiling: 7000 feet AGL
Clouds: few clouds at 4000 feet AGL
broken clouds at 7000 feet AGL
Weather: no significant weather forecast for this period
Text: BECMG 2607/2609 08008KT
Forecast period: 0700 to 2100 UTC 26 January 2020
Forecast type: BECOMING: Conditions expected to become as follows by 0900 UTC 26 January 2020
Winds: from the E (80 degrees) at 9 MPH (8 knots; 4.1 m/s)
Visibility: 6 or more miles 10+ km)
Ceiling: 7000 feet AGL
Clouds: few clouds at 4000 feet AGL
broken clouds at 7000 feet AGL
Weather: no significant weather forecast for this period
Text: BECMG 2621/2700 05018KT
Forecast period: 2100 UTC 26 January 2020 to 1200 UTC 27 January 2020
Forecast type: BECOMING: Conditions expected to become as follows by 0000 UTC 27 January 2020
Winds: from the NE (50 degrees) at 21 MPH (18 knots; 9.3 m/s)
Visibility: 6 or more miles 10+ km)
Ceiling: 7000 feet AGL
Clouds: few clouds at 4000 feet AGL
broken clouds at 7000 feet AGL
Weather: no significant weather forecast for this period
Text: TEMPO 2700/2709 05022G32KT
Forecast period: 0000 to 0900 UTC 27 January 2020
Forecast type: TEMPORARY: The following changes expected for less than half the time period
Winds: from the NE (50 degrees) at 25 MPH (22 knots; 11.3 m/s)
gusting to 37 MPH (32 knots; 16.5 m/s)
Visibility: missing
Ceiling: unknown
Clouds: missing
Weather: no significant weather forecast for this period